Ocean Bay Park, New York
Current Conditions -  °F | °C
As of 9:56 PM on Monday 20 Oct 2014 (Local Time) from KISP Reporting Station
Broken Clouds Broken Clouds  
Wind Chill: 56°   Ceiling: 26000
Heat Index: 56°   Visibility: 10mi
Dew Point: 45°   Wind: 6mph
Humidity: 67%   Direction: 210°SSW
Pressure: 29.98"   Gusts: NA
Location:  40.6448°N, 73.1603°W
Report Text: KISP 210156Z 21005KT 10SM FEW150 BKN260 13/07 A2998 RMK AO2 SLP150 T01330072
Loading
Personal Weather Stations






























Interactive Weather Map
Tropical Storm Tracking
New forecast layout! Learn more

10-Day Weather Forecast

Advertisements
Track Severe Weather on mobile